createdAt,value
2022-11-26T00:02:19.055Z,7.88
2022-11-26T00:04:46.814Z,7.57
2022-11-26T00:07:18.288Z,8.15
2022-11-26T00:09:45.967Z,8.30
2022-11-26T00:12:18.592Z,9.02
2022-11-26T00:14:47.183Z,9.13
2022-11-26T00:17:17.595Z,9.52
2022-11-26T00:19:46.026Z,9.85
2022-11-26T00:22:24.044Z,9.88
2022-11-26T00:25:16.383Z,9.63
2022-11-26T00:30:19.888Z,8.45
2022-11-26T00:32:50.130Z,9.40
2022-11-26T00:35:18.594Z,10.07
2022-11-26T00:37:48.602Z,8.95
2022-11-26T00:40:21.508Z,9.98
2022-11-26T00:42:49.462Z,10.18
2022-11-26T00:45:20.735Z,10.02
2022-11-26T00:47:50.353Z,9.68
2022-11-26T00:50:21.460Z,9.35
2022-11-26T00:52:51.032Z,10.60
2022-11-26T00:55:28.224Z,9.18
2022-11-26T00:57:56.238Z,8.93
2022-11-26T01:00:26.494Z,9.27
2022-11-26T01:02:56.522Z,10.32
2022-11-26T01:05:26.613Z,9.35
2022-11-26T01:07:54.686Z,9.75
2022-11-26T01:10:25.143Z,10.20
2022-11-26T01:12:54.460Z,9.38
2022-11-26T01:15:24.937Z,10.25
2022-11-26T01:17:53.031Z,10.25
2022-11-26T01:20:27.896Z,10.18
2022-11-26T01:22:57.843Z,10.63
2022-11-26T01:25:27.218Z,9.77
2022-11-26T01:44:29.477Z,11.15
2022-11-26T01:46:59.150Z,11.18
2022-11-26T01:49:28.581Z,10.82
2022-11-26T01:52:06.422Z,10.93
2022-11-26T01:54:37.714Z,9.85
2022-11-26T01:57:10.768Z,10.60
2022-11-26T01:59:44.076Z,10.52
2022-11-26T02:02:12.467Z,11.02
2022-11-26T02:04:42.894Z,10.10
2022-11-26T02:07:12.502Z,10.63
2022-11-26T02:09:41.222Z,10.68
2022-11-26T02:12:09.364Z,9.98
2022-11-26T02:14:42.822Z,10.75
2022-11-26T02:17:18.432Z,10.50
2022-11-26T02:20:29.592Z,11.27
2022-11-26T02:23:34.824Z,11.07
2022-11-26T02:26:47.001Z,11.38
2022-11-26T02:29:22.872Z,11.23
2022-11-26T02:31:56.896Z,11.05
2022-11-26T02:34:37.772Z,10.90
2022-11-26T02:37:10.727Z,10.52
2022-11-26T02:39:38.511Z,11.85
2022-11-26T02:42:24.680Z,10.85
2022-11-26T02:44:54.499Z,10.93
2022-11-26T02:47:25.628Z,11.23
2022-11-26T02:49:56.454Z,10.23
2022-11-26T02:52:32.531Z,10.27
2022-11-26T02:55:52.002Z,9.32
2022-11-26T02:58:20.416Z,10.10
2022-11-26T03:00:50.527Z,10.15
2022-11-26T03:03:26.040Z,9.85
2022-11-26T03:05:56.772Z,10.48
2022-11-26T03:08:26.524Z,9.98
2022-11-26T03:10:55.889Z,10.05
2022-11-26T03:13:24.448Z,11.52
2022-11-26T03:15:56.033Z,11.23
2022-11-26T03:18:26.468Z,10.90
2022-11-26T03:21:19.526Z,9.50
2022-11-26T03:23:47.471Z,9.65
2022-11-26T03:26:15.511Z,10.15
2022-11-26T03:28:43.820Z,10.73
2022-11-26T03:31:14.530Z,12.43
2022-11-26T03:33:43.497Z,12.45
2022-11-26T03:36:11.328Z,13.07
2022-11-26T03:38:40.537Z,13.48
2022-11-26T03:41:08.147Z,13.10
2022-11-26T03:43:35.745Z,15.35
2022-11-26T03:46:05.485Z,15.13
2022-11-26T03:48:33.211Z,16.08
2022-11-26T03:51:02.204Z,16.50
2022-11-26T03:53:29.988Z,16.33
2022-11-26T03:55:57.569Z,16.00
2022-11-26T03:58:25.982Z,15.93
2022-11-26T04:00:53.729Z,15.77
2022-11-26T04:03:26.500Z,16.00
2022-11-26T04:05:54.447Z,16.98
2022-11-26T04:08:24.447Z,16.85
2022-11-26T04:10:52.538Z,16.33
2022-11-26T04:13:20.417Z,16.08
2022-11-26T04:15:54.466Z,15.65
2022-11-26T04:18:23.839Z,15.80
2022-11-26T04:20:53.315Z,15.95
2022-11-26T04:23:26.318Z,15.82
2022-11-26T04:25:54.101Z,14.18
2022-11-26T04:28:22.039Z,14.63
2022-11-26T04:30:50.436Z,14.60
2022-11-26T04:33:18.240Z,14.23
2022-11-26T04:35:45.987Z,14.60
2022-11-26T04:38:13.920Z,13.95
2022-11-26T04:40:43.508Z,14.82
2022-11-26T04:43:11.440Z,14.18
2022-11-26T04:45:39.109Z,14.13
2022-11-26T04:48:07.633Z,14.38
2022-11-26T04:50:35.980Z,14.73
2022-11-26T04:53:05.071Z,14.02
2022-11-26T04:55:32.897Z,14.13
2022-11-26T04:58:02.013Z,14.00
2022-11-26T05:00:31.501Z,14.00
2022-11-26T05:03:01.921Z,13.52
2022-11-26T05:08:24.475Z,13.70
2022-11-26T05:10:55.091Z,12.52
2022-11-26T05:13:24.524Z,12.73
2022-11-26T05:15:52.935Z,11.52
2022-11-26T05:18:20.684Z,12.50
2022-11-26T05:20:48.808Z,11.88
2022-11-26T05:23:18.450Z,11.65
2022-11-26T05:25:46.439Z,12.10
2022-11-26T05:28:38.240Z,11.20
2022-11-26T05:31:07.277Z,11.75
2022-11-26T05:33:34.939Z,12.20
2022-11-26T05:36:02.650Z,11.95
2022-11-26T05:38:30.291Z,11.02
2022-11-26T05:41:01.872Z,11.60
2022-11-26T05:45:57.580Z,10.88
2022-11-26T05:48:28.362Z,11.05
2022-11-26T05:50:58.466Z,10.50
2022-11-26T05:53:26.669Z,10.98
2022-11-26T05:55:54.378Z,10.40
2022-11-26T05:58:22.048Z,10.85
2022-11-26T06:00:50.608Z,11.27
2022-11-26T06:03:20.347Z,11.15
2022-11-26T06:05:49.656Z,11.00
2022-11-26T06:08:17.295Z,11.88
2022-11-26T06:10:45.695Z,11.77
2022-11-26T06:13:15.264Z,12.18
2022-11-26T06:15:42.866Z,12.68
2022-11-26T06:18:11.035Z,12.13
2022-11-26T06:20:39.336Z,12.32
2022-11-26T06:23:08.537Z,12.32
2022-11-26T06:25:36.441Z,11.80
2022-11-26T06:28:04.515Z,11.07
2022-11-26T06:30:32.448Z,11.02
2022-11-26T06:33:00.104Z,10.65
2022-11-26T06:35:27.891Z,10.15
2022-11-26T06:37:55.536Z,10.80
2022-11-26T06:40:25.559Z,10.00
2022-11-26T06:42:54.919Z,9.98
2022-11-26T06:45:27.589Z,10.68
2022-11-26T06:47:55.286Z,10.00
2022-11-26T06:50:24.560Z,10.40
2022-11-26T06:52:53.144Z,10.60
2022-11-26T06:55:21.173Z,11.63
2022-11-26T06:57:53.526Z,11.63
2022-11-26T07:00:22.492Z,10.82
2022-11-26T07:02:51.590Z,11.77
2022-11-26T07:05:19.427Z,11.48
2022-11-26T07:07:47.127Z,10.65
2022-11-26T07:10:14.845Z,10.80
2022-11-26T07:12:44.470Z,10.50
2022-11-26T07:15:14.740Z,10.07
2022-11-26T07:17:42.445Z,9.63
2022-11-26T07:20:10.606Z,10.20
2022-11-26T07:22:39.818Z,9.85
2022-11-26T07:25:12.391Z,8.73
2022-11-26T07:27:40.437Z,8.77
2022-11-26T07:30:12.116Z,9.35
2022-11-26T07:32:41.595Z,8.98
2022-11-26T07:35:17.455Z,8.70
2022-11-26T07:37:46.091Z,8.18
2022-11-26T07:40:15.435Z,7.72
2022-11-26T07:42:46.266Z,7.55
2022-11-26T07:45:18.440Z,8.18
2022-11-26T07:47:47.410Z,7.80
2022-11-26T07:50:15.065Z,7.32
2022-11-26T07:52:42.832Z,6.97
2022-11-26T07:55:12.625Z,6.82
2022-11-26T07:57:40.417Z,7.38
2022-11-26T08:00:11.468Z,7.32
2022-11-26T08:02:42.472Z,8.10
2022-11-26T08:05:11.523Z,7.35
2022-11-26T08:07:39.968Z,8.02
2022-11-26T08:10:08.595Z,8.38
2022-11-26T08:12:36.451Z,9.52
2022-11-26T08:15:04.530Z,9.15
2022-11-26T08:17:32.881Z,8.75
2022-11-26T08:20:00.520Z,9.77
2022-11-26T08:22:31.606Z,9.45
2022-11-26T08:24:59.215Z,9.10
2022-11-26T08:27:26.820Z,8.93
2022-11-26T08:29:54.431Z,9.38
2022-11-26T08:32:22.976Z,10.30
2022-11-26T08:34:50.552Z,9.20
2022-11-26T08:37:18.959Z,9.07
2022-11-26T08:39:48.329Z,9.80
2022-11-26T08:42:16.387Z,9.85
2022-11-26T08:44:45.995Z,10.27
2022-11-26T08:47:14.509Z,10.00
2022-11-26T08:49:43.456Z,10.55
2022-11-26T08:52:11.992Z,10.57
2022-11-26T08:54:44.788Z,10.55
2022-11-26T08:57:14.666Z,9.98
2022-11-26T08:59:43.888Z,11.27
2022-11-26T09:02:37.609Z,11.55
2022-11-26T09:05:07.645Z,11.20
2022-11-26T09:07:37.829Z,11.18
2022-11-26T09:10:06.835Z,11.00
2022-11-26T09:12:35.811Z,11.40
2022-11-26T09:15:05.619Z,12.95
2022-11-26T09:17:34.442Z,11.35
2022-11-26T09:20:02.088Z,12.18
2022-11-26T09:22:31.459Z,11.95
2022-11-26T09:25:04.488Z,12.07
2022-11-26T09:27:32.085Z,12.23
2022-11-26T09:30:01.928Z,12.07
2022-11-26T09:32:33.893Z,12.15
2022-11-26T09:35:03.622Z,12.85
2022-11-26T09:37:32.086Z,13.20
2022-11-26T09:40:00.535Z,13.18
2022-11-26T09:42:43.390Z,13.05
2022-11-26T09:45:28.939Z,13.52
2022-11-26T09:47:57.460Z,14.02
2022-11-26T09:50:31.594Z,13.60
2022-11-26T09:53:03.148Z,14.50
2022-11-26T09:55:33.512Z,13.52
2022-11-26T09:58:10.514Z,13.80
2022-11-26T10:00:43.740Z,13.15
2022-11-26T10:03:15.299Z,13.38
2022-11-26T10:05:49.227Z,12.90
2022-11-26T10:08:54.170Z,14.25
2022-11-26T10:11:32.079Z,13.32
2022-11-26T10:14:12.638Z,13.88
2022-11-26T10:16:48.262Z,13.45
2022-11-26T10:19:24.722Z,14.10
2022-11-26T10:21:58.953Z,11.90
2022-11-26T10:24:32.763Z,12.68
2022-11-26T10:27:06.360Z,11.82
2022-11-26T10:29:38.125Z,11.70
2022-11-26T10:34:49.994Z,12.43
2022-11-26T10:37:17.976Z,12.65
2022-11-26T10:39:46.462Z,12.30
2022-11-26T10:42:18.058Z,12.50
2022-11-26T10:44:47.502Z,13.45
2022-11-26T10:47:24.011Z,12.75
2022-11-26T10:49:53.298Z,12.98
2022-11-26T10:52:24.478Z,11.98
2022-11-26T10:55:09.027Z,11.50
2022-11-26T10:57:43.926Z,12.55
2022-11-26T11:00:37.989Z,12.10
2022-11-26T11:03:38.568Z,12.23
2022-11-26T11:06:22.926Z,11.60
2022-11-26T11:08:52.475Z,11.30
2022-11-26T11:11:22.572Z,11.95
2022-11-26T11:13:50.634Z,12.10
2022-11-26T11:16:28.583Z,11.30
2022-11-26T11:19:05.554Z,11.77
2022-11-26T11:21:36.247Z,10.80
2022-11-26T11:24:10.828Z,11.50
2022-11-26T11:26:42.217Z,11.15
2022-11-26T11:29:25.563Z,11.23
2022-11-26T11:31:53.582Z,11.32
2022-11-26T11:34:34.216Z,11.18
2022-11-26T11:37:03.841Z,11.18
2022-11-26T11:39:33.978Z,10.73
2022-11-26T11:42:05.453Z,10.40
2022-11-26T11:44:39.707Z,11.30
2022-11-26T11:47:34.492Z,10.52
2022-11-26T11:50:19.441Z,11.18
2022-11-26T11:52:59.418Z,10.68
2022-11-26T11:55:42.745Z,11.18
2022-11-26T11:58:38.339Z,11.40
2022-11-26T12:01:16.810Z,10.70
2022-11-26T12:04:07.270Z,10.23
2022-11-26T12:09:22.469Z,10.43
2022-11-26T12:11:57.633Z,10.20
2022-11-26T12:14:34.470Z,10.18
2022-11-26T12:17:07.528Z,9.88
2022-11-26T12:19:40.374Z,8.85
2022-11-26T12:22:17.598Z,10.27
2022-11-26T12:24:50.144Z,9.50
2022-11-26T12:29:57.326Z,9.90
2022-11-26T12:32:32.110Z,10.20
2022-11-26T12:35:05.778Z,10.13
2022-11-26T12:37:39.633Z,9.68
2022-11-26T12:40:17.479Z,9.70
2022-11-26T12:42:53.452Z,10.55
2022-11-26T12:45:45.604Z,9.30
2022-11-26T12:48:49.089Z,9.52
2022-11-26T12:51:27.493Z,8.63
2022-11-26T12:54:07.706Z,8.32
2022-11-26T12:56:42.599Z,7.43
2022-11-26T12:59:20.454Z,9.18
2022-11-26T13:01:48.651Z,8.05
2022-11-26T13:07:31.578Z,7.72
2022-11-26T13:10:20.619Z,7.15
2022-11-26T13:12:56.533Z,7.00
2022-11-26T13:15:29.250Z,6.88
2022-11-26T13:18:00.164Z,6.75
2022-11-26T13:20:41.476Z,7.38
2022-11-26T13:23:39.094Z,7.18
2022-11-26T13:26:41.689Z,6.45
2022-11-26T13:29:30.539Z,6.40
2022-11-26T13:32:13.222Z,5.95
2022-11-26T13:35:01.978Z,6.50
2022-11-26T13:37:47.827Z,5.68
2022-11-26T13:40:38.114Z,6.07
2022-11-26T13:43:41.469Z,5.65
2022-11-26T13:46:22.344Z,5.28
2022-11-26T13:48:59.109Z,5.90
2022-11-26T13:51:35.174Z,6.05
2022-11-26T13:54:09.611Z,5.50
2022-11-26T13:56:39.763Z,6.00
2022-11-26T13:59:15.263Z,5.80
2022-11-26T14:01:44.525Z,6.38
2022-11-26T14:04:14.631Z,5.70
2022-11-26T14:07:17.913Z,5.10
2022-11-26T14:09:51.780Z,5.13
2022-11-26T14:12:20.676Z,4.78
2022-11-26T14:14:51.522Z,4.82
2022-11-26T14:17:47.342Z,5.10
2022-11-26T14:20:14.979Z,4.53
2022-11-26T14:22:42.716Z,4.40
2022-11-26T14:25:15.683Z,4.60
2022-11-26T14:27:53.005Z,4.32
2022-11-26T14:30:25.461Z,4.28
2022-11-26T14:33:12.185Z,4.50
2022-11-26T14:35:41.484Z,4.68
2022-11-26T14:38:35.521Z,4.13
2022-11-26T14:41:04.101Z,4.32
2022-11-26T14:43:31.743Z,4.65
2022-11-26T14:46:06.677Z,4.38
2022-11-26T14:48:38.158Z,4.38
2022-11-26T14:51:09.303Z,4.10
2022-11-26T14:53:41.638Z,4.00
2022-11-26T14:56:11.084Z,4.13
2022-11-26T14:58:43.460Z,3.85
2022-11-26T15:01:36.858Z,3.40
2022-11-26T15:04:08.458Z,4.32
2022-11-26T15:06:39.153Z,4.05
2022-11-26T15:09:10.855Z,3.67
2022-11-26T15:11:42.677Z,3.70
2022-11-26T15:14:25.745Z,3.42
2022-11-26T15:16:59.088Z,3.83
2022-11-26T15:19:31.523Z,3.83
2022-11-26T15:21:59.276Z,3.67
2022-11-26T15:24:27.980Z,4.05
2022-11-26T15:26:55.643Z,3.70
2022-11-26T15:29:30.701Z,3.95
2022-11-26T15:31:59.327Z,4.07
2022-11-26T15:34:30.319Z,3.25
2022-11-26T15:36:58.148Z,3.70
2022-11-26T15:39:29.074Z,3.60
2022-11-26T15:42:02.345Z,3.75
2022-11-26T15:44:39.054Z,3.95
2022-11-26T15:47:19.385Z,3.45
2022-11-26T15:49:52.528Z,4.10
2022-11-26T15:52:23.498Z,3.55
2022-11-26T15:55:16.397Z,3.80
2022-11-26T15:57:44.783Z,3.90
2022-11-26T16:00:26.496Z,4.07
2022-11-26T16:02:56.077Z,4.22
2022-11-26T16:05:31.568Z,4.53
2022-11-26T16:08:01.677Z,3.90
2022-11-26T16:10:36.689Z,3.88
2022-11-26T16:13:18.966Z,3.97
2022-11-26T16:15:51.664Z,3.88
2022-11-26T16:18:22.079Z,3.67
2022-11-26T16:20:51.115Z,4.30
2022-11-26T16:23:27.887Z,4.00
2022-11-26T16:26:15.944Z,4.13
2022-11-26T16:28:44.593Z,4.10
2022-11-26T16:31:12.777Z,3.97
2022-11-26T16:33:40.737Z,4.00
2022-11-26T16:36:20.137Z,4.10
2022-11-26T16:38:48.459Z,3.80
2022-11-26T16:41:17.614Z,3.60
2022-11-26T16:43:45.352Z,3.83
2022-11-26T16:46:15.837Z,3.85
2022-11-26T16:48:44.743Z,3.75
2022-11-26T16:51:12.871Z,3.83
2022-11-26T16:53:42.162Z,3.28
2022-11-26T16:56:19.578Z,3.70
2022-11-26T16:58:48.504Z,4.20
2022-11-26T17:01:16.073Z,3.67
2022-11-26T17:03:44.648Z,3.70
2022-11-26T17:06:15.336Z,3.90
2022-11-26T17:11:32.443Z,3.53
2022-11-26T17:14:00.092Z,3.80
2022-11-26T17:16:29.031Z,4.15
2022-11-26T17:18:56.662Z,4.00
2022-11-26T17:21:24.332Z,3.80
2022-11-26T17:23:53.479Z,3.97
2022-11-26T17:26:24.015Z,3.97
2022-11-26T17:28:52.563Z,3.42
2022-11-26T17:31:20.375Z,3.67
2022-11-26T17:33:48.145Z,3.60
2022-11-26T17:36:19.180Z,4.43
2022-11-26T17:38:46.961Z,3.77
2022-11-26T17:41:16.781Z,3.38
2022-11-26T17:43:45.602Z,3.60
2022-11-26T17:46:16.504Z,3.28
2022-11-26T17:48:44.336Z,3.65
2022-11-26T17:51:15.222Z,3.92
2022-11-26T17:53:44.116Z,3.95
2022-11-26T17:56:21.403Z,4.43
2022-11-26T17:58:49.461Z,4.03
2022-11-26T18:01:18.691Z,4.00
2022-11-26T18:03:47.510Z,3.88
2022-11-26T18:06:17.359Z,4.50
2022-11-26T18:08:45.926Z,4.68
2022-11-26T18:11:15.371Z,4.32
2022-11-26T18:13:45.162Z,4.18
2022-11-26T18:16:12.831Z,4.30
2022-11-26T18:18:40.463Z,4.10
2022-11-26T18:21:08.147Z,4.60
2022-11-26T18:23:35.851Z,4.22
2022-11-26T18:26:03.490Z,4.32
2022-11-26T18:28:31.112Z,5.10
2022-11-26T18:31:00.652Z,4.22
2022-11-26T18:33:28.440Z,4.07
2022-11-26T18:35:56.207Z,4.50
2022-11-26T18:38:28.685Z,4.45
2022-11-26T18:41:00.008Z,4.07
2022-11-26T18:43:29.472Z,4.15
2022-11-26T18:45:57.141Z,4.88
2022-11-26T18:48:26.218Z,3.95
2022-11-26T18:50:58.558Z,4.80
2022-11-26T18:53:27.771Z,4.18
2022-11-26T18:55:55.820Z,4.43
2022-11-26T18:58:24.110Z,4.53
2022-11-26T19:00:54.140Z,4.28
2022-11-26T19:03:21.951Z,4.50
2022-11-26T19:05:53.159Z,4.00
2022-11-26T19:08:22.160Z,4.10
2022-11-26T19:10:50.210Z,4.10
2022-11-26T19:13:17.993Z,4.10
2022-11-26T19:15:46.942Z,4.50
2022-11-26T19:18:15.384Z,4.63
2022-11-26T19:20:51.336Z,5.00
2022-11-26T19:23:24.186Z,4.60
2022-11-26T19:25:53.525Z,5.18
2022-11-26T19:28:22.492Z,4.20
2022-11-26T19:30:59.151Z,5.35
2022-11-26T19:33:26.895Z,4.40
2022-11-26T19:35:56.172Z,4.88
2022-11-26T19:38:24.625Z,4.65
2022-11-26T19:40:57.220Z,4.80
2022-11-26T19:43:26.245Z,5.03
2022-11-26T19:46:01.685Z,4.45
2022-11-26T19:48:29.460Z,4.88
2022-11-26T19:50:59.316Z,4.47
2022-11-26T19:53:27.491Z,4.70
2022-11-26T19:55:59.558Z,4.47
2022-11-26T19:58:28.168Z,4.47
2022-11-26T20:00:56.592Z,4.40
2022-11-26T20:03:24.917Z,4.72
2022-11-26T20:05:53.293Z,4.70
2022-11-26T20:08:23.519Z,4.68
2022-11-26T20:10:51.264Z,4.22
2022-11-26T20:13:18.852Z,4.28
2022-11-26T20:15:47.438Z,4.38
2022-11-26T20:18:15.677Z,4.28
2022-11-26T20:20:43.510Z,4.25
2022-11-26T20:23:12.240Z,4.00
2022-11-26T20:25:41.360Z,4.43
2022-11-26T20:28:09.994Z,4.70
2022-11-26T20:30:38.867Z,4.78
2022-11-26T20:33:06.555Z,4.15
2022-11-26T20:35:34.231Z,4.95
2022-11-26T20:38:01.878Z,5.00
2022-11-26T20:40:29.540Z,5.20
2022-11-26T20:42:58.564Z,5.35
2022-11-26T20:45:26.207Z,5.00
2022-11-26T20:47:53.889Z,5.05
2022-11-26T20:50:21.498Z,4.63
2022-11-26T20:52:49.182Z,4.72
2022-11-26T20:55:21.668Z,5.85
2022-11-26T20:57:50.326Z,5.03
2022-11-26T21:00:24.846Z,5.65
2022-11-26T21:02:55.152Z,4.82
2022-11-26T21:05:23.095Z,4.90
2022-11-26T21:07:51.743Z,4.78
2022-11-26T21:10:21.135Z,5.22
2022-11-26T21:12:49.838Z,4.72
2022-11-26T21:15:19.031Z,4.85
2022-11-26T21:17:46.797Z,5.15
2022-11-26T21:20:15.499Z,5.30
2022-11-26T21:22:43.310Z,5.35
2022-11-26T21:25:10.963Z,5.30
2022-11-26T21:27:38.990Z,4.88
2022-11-26T21:30:08.018Z,5.35
2022-11-26T21:32:37.187Z,5.32
2022-11-26T21:35:05.260Z,5.28
2022-11-26T21:37:32.954Z,5.53
2022-11-26T21:40:00.561Z,5.40
2022-11-26T21:42:28.327Z,5.80
2022-11-26T21:44:55.986Z,5.63
2022-11-26T21:47:23.547Z,5.68
2022-11-26T21:49:52.669Z,5.45
2022-11-26T21:52:20.286Z,5.53
2022-11-26T21:54:47.923Z,5.35
2022-11-26T21:57:16.547Z,5.93
2022-11-26T21:59:45.197Z,4.95
2022-11-26T22:02:13.559Z,5.20
2022-11-26T22:04:41.430Z,5.30
2022-11-26T22:07:10.764Z,5.72
2022-11-26T22:09:38.859Z,5.10
2022-11-26T22:12:08.155Z,5.40
2022-11-26T22:14:36.191Z,4.78
2022-11-26T22:17:04.539Z,5.18
2022-11-26T22:19:32.336Z,4.88
2022-11-26T22:21:59.947Z,5.68
2022-11-26T22:24:28.923Z,4.80
2022-11-26T22:26:56.712Z,4.50
2022-11-26T22:29:24.523Z,4.10
2022-11-26T22:31:52.230Z,4.70
2022-11-26T22:34:21.832Z,4.65
2022-11-26T22:36:49.516Z,4.47
2022-11-26T22:39:19.946Z,4.28
2022-11-26T22:41:49.555Z,4.15
2022-11-26T22:44:18.080Z,4.07
2022-11-26T22:46:46.176Z,4.47
2022-11-26T22:49:16.001Z,5.03
2022-11-26T22:51:43.590Z,4.10
2022-11-26T22:54:13.654Z,4.10
2022-11-26T22:56:41.491Z,4.65
2022-11-26T22:59:13.920Z,4.25
2022-11-26T23:01:42.444Z,4.55
2022-11-26T23:04:11.610Z,4.20
2022-11-26T23:06:40.040Z,3.97
2022-11-26T23:09:09.454Z,4.30
2022-11-26T23:11:39.634Z,4.30
2022-11-26T23:14:11.762Z,4.30
2022-11-26T23:16:42.518Z,4.00
2022-11-26T23:19:10.711Z,4.05
2022-11-26T23:21:42.621Z,4.15
2022-11-26T23:24:10.865Z,4.53
2022-11-26T23:26:40.345Z,4.07
2022-11-26T23:29:10.894Z,3.92
2022-11-26T23:31:40.694Z,4.28
2022-11-26T23:34:09.513Z,4.20
2022-11-26T23:36:39.475Z,4.30
2022-11-26T23:39:10.406Z,4.22
2022-11-26T23:41:38.206Z,4.38
2022-11-26T23:44:07.661Z,3.88
2022-11-26T23:46:36.653Z,4.03
2022-11-26T23:49:04.857Z,4.50
2022-11-26T23:51:33.644Z,4.43
2022-11-26T23:54:01.470Z,3.90
2022-11-26T23:56:30.978Z,4.35
2022-11-26T23:59:01.483Z,4.05
